Time,TemperatureF,DewpointF,PressureIn,WindDirection,WindDirectionDegrees,WindSpeedMPH,WindSpeedGustMPH,Humidity,HourlyPrecipIn,Conditions,Clouds,dailyrainin,SoftwareType,DateUTC
2013-01-06 00:00:00,31.0,24.0,30.03,South,179,1.4,3.5,75,0.00,CLR,,0.00,WeatherDisplay:10.37,2013-01-06 05:00:00,
2013-01-06 00:02:00,31.1,24.4,30.03,South,179,1.7,4.0,76,0.00,CLR,,0.00,WeatherDisplay:10.37,2013-01-06 05:02:00,
2013-01-06 00:03:00,31.0,24.3,30.03,South,169,2.2,3.5,76,0.00,CLR,,0.00,WeatherDisplay:10.37,2013-01-06 05:03:00,
2013-01-06 00:06:00,31.1,24.4,30.02,SSE,162,0.4,2.0,76,0.00,CLR,,0.00,WeatherDisplay:10.37,2013-01-06 05:06:00,
2013-01-06 00:11:00,31.0,24.3,30.02,South,172,1.2,2.3,76,0.00,CLR,,0.00,WeatherDisplay:10.37,2013-01-06 05:11:00,
2013-01-06 00:12:00,31.0,24.3,30.02,SSE,149,1.9,3.5,76,0.00,CLR,,0.00,WeatherDisplay:10.37,2013-01-06 05:12:00,
2013-01-06 00:17:00,31.0,24.6,30.02,SSW,203,3.5,5.0,77,0.00,CLR,,0.00,WeatherDisplay:10.37,2013-01-06 05:17:00,
2013-01-06 00:22:00,31.0,24.6,30.02,South,169,2.4,6.9,77,0.00,CLR,,0.00,WeatherDisplay:10.37,2013-01-06 05:22:00,
2013-01-06 00:25:00,31.0,24.6,30.02,South,190,3.6,5.8,77,0.00,CLR,,0.00,WeatherDisplay:10.37,2013-01-06 05:25:00,
2013-01-06 00:28:00,31.0,24.6,30.02,South,190,3.6,5.8,77,0.00,CLR,,0.00,WeatherDisplay:10.37,2013-01-06 05:28:00,
2013-01-06 00:33:00,31.0,24.6,30.02,South,190,3.6,5.8,77,0.00,CLR,,0.00,WeatherDisplay:10.37,2013-01-06 05:33:00,
2013-01-06 01:21:00,31.3,25.8,30.01,SSE,160,0.0,0.0,80,0.00,CLR,,0.00,WeatherDisplay:10.37,2013-01-06 06:21:00,
2013-01-06 01:26:00,31.3,25.5,30.01,South,180,0.0,0.0,79,0.00,CLR,,0.00,WeatherDisplay:10.37,2013-01-06 06:26:00,
2013-01-06 01:31:00,31.4,25.6,30.00,SE,146,0.0,2.3,79,0.00,CLR,,0.00,WeatherDisplay:10.37,2013-01-06 06:31:00,
2013-01-06 01:36:00,31.5,25.7,30.00,SE,146,0.0,0.0,79,0.00,CLR,,0.00,WeatherDisplay:10.37,2013-01-06 06:36:00,
2013-01-06 01:41:00,31.5,25.4,30.00,SSE,159,0.0,1.1,78,0.00,CLR,,0.00,WeatherDisplay:10.37,2013-01-06 06:41:00,
2013-01-06 01:57:00,31.7,25.6,29.99,SSE,163,0.1,0.0,78,0.00,CLR,,0.00,WeatherDisplay:10.37,2013-01-06 06:57:00,
2013-01-06 02:02:00,31.7,25.3,29.99,SSE,163,0.0,0.0,77,0.00,CLR,,0.00,WeatherDisplay:10.37,2013-01-06 07:02:00,
2013-01-06 02:09:00,31.7,25.3,29.99,SSE,163,0.4,0.0,77,0.00,CLR,,0.00,WeatherDisplay:10.37,2013-01-06 07:09:00,
2013-01-06 02:14:00,31.7,25.3,29.98,SSE,163,1.0,2.3,77,0.00,CLR,,0.00,WeatherDisplay:10.37,2013-01-06 07:14:00,
2013-01-06 02:21:00,31.7,25.0,29.98,SSW,207,0.5,1.0,76,0.00,CLR,,0.00,WeatherDisplay:10.37,2013-01-06 07:21:00,
2013-01-06 02:26:00,31.7,25.3,29.98,SSW,207,0.1,1.0,77,0.00,CLR,,0.00,WeatherDisplay:10.37,2013-01-06 07:26:00,
2013-01-06 10:30:00,36.1,29.3,29.90,SSW,206,3.3,5.0,76,0.00,CLR,,0.00,WeatherDisplay:10.37,2013-01-06 15:30:00,
2013-01-06 10:35:00,36.2,29.4,29.90,South,188,3.7,5.8,76,0.00,CLR,,0.00,WeatherDisplay:10.37,2013-01-06 15:35:00,
2013-01-06 14:18:00,36.9,31.0,29.85,SSW,206,2.3,4.0,79,0.00,CLR,,0.00,WeatherDisplay:10.37,2013-01-06 19:18:00,
2013-01-06 14:23:00,36.9,31.0,29.84,SSW,211,2.4,8.1,79,0.00,CLR,,0.00,WeatherDisplay:10.37,2013-01-06 19:23:00,
2013-01-06 14:32:00,36.9,31.0,29.84,SSW,196,2.1,3.0,79,0.00,CLR,,0.00,WeatherDisplay:10.37,2013-01-06 19:32:00,
2013-01-06 14:37:00,37.1,30.9,29.85,SSW,200,2.5,4.6,78,0.00,CLR,,0.00,WeatherDisplay:10.37,2013-01-06 19:37:00,
2013-01-06 15:03:00,37.3,31.1,29.85,SW,219,1.6,2.0,78,0.00,CLR,,0.00,WeatherDisplay:10.37,2013-01-06 20:03:00,
2013-01-06 15:08:00,37.3,31.1,29.86,South,170,2.5,4.6,78,0.00,CLR,,0.00,WeatherDisplay:10.37,2013-01-06 20:08:00,
2013-01-06 15:11:00,37.3,31.1,29.86,SW,227,7.0,11.5,78,0.00,CLR,,0.00,WeatherDisplay:10.37,2013-01-06 20:11:00,
2013-01-06 15:13:00,37.2,31.0,29.86,SSW,206,4.9,11.5,78,0.00,CLR,,0.00,WeatherDisplay:10.37,2013-01-06 20:13:00,
2013-01-06 15:24:00,37.2,31.3,29.86,South,190,0.0,5.8,79,0.00,CLR,,0.00,WeatherDisplay:10.37,2013-01-06 20:24:00,
2013-01-06 15:29:00,37.1,31.2,29.86,SSW,202,4.1,6.9,79,0.00,CLR,,0.00,WeatherDisplay:10.37,2013-01-06 20:29:00,
2013-01-06 15:42:00,37.0,31.1,29.86,SW,230,3.6,6.0,79,0.00,CLR,,0.00,WeatherDisplay:10.37,2013-01-06 20:42:00,
2013-01-06 15:48:00,36.9,31.6,29.87,WSW,253,5.8,11.5,81,0.00,CLR,,0.00,WeatherDisplay:10.37,2013-01-06 20:48:00,
2013-01-06 16:13:00,36.1,31.7,29.88,SW,218,0.0,6.0,84,0.00,CLR,,0.00,WeatherDisplay:10.37,2013-01-06 21:13:00,
2013-01-06 16:14:00,36.1,31.7,29.88,SSW,203,0.0,4.0,84,0.00,CLR,,0.00,WeatherDisplay:10.37,2013-01-06 21:14:00,
2013-01-06 16:19:00,36.0,31.6,29.88,SSW,211,2.1,3.5,84,0.00,CLR,,0.00,WeatherDisplay:10.37,2013-01-06 21:19:00,
2013-01-06 16:24:00,35.8,31.7,29.88,SSW,209,0.0,4.0,85,0.00,CLR,,0.00,WeatherDisplay:10.37,2013-01-06 21:24:00,
2013-01-06 16:29:00,35.7,31.6,29.88,SW,215,3.6,6.9,85,0.00,CLR,,0.00,WeatherDisplay:10.37,2013-01-06 21:29:00,
2013-01-06 16:35:00,35.6,31.8,29.89,South,180,0.0,5.8,86,0.00,CLR,,0.00,WeatherDisplay:10.37,2013-01-06 21:35:00,
2013-01-06 16:40:00,35.4,31.6,29.89,SSW,201,1.7,4.6,86,0.00,CLR,,0.00,WeatherDisplay:10.37,2013-01-06 21:40:00,
2013-01-06 16:45:00,35.2,31.7,29.89,SW,217,2.2,4.6,87,0.00,CLR,,0.00,WeatherDisplay:10.37,2013-01-06 21:45:00,
2013-01-06 16:50:00,35.1,31.6,29.89,SW,229,0.4,1.0,87,0.00,CLR,,0.00,WeatherDisplay:10.37,2013-01-06 21:50:00,
2013-01-06 19:52:00,34.8,31.9,29.93,SW,226,0.0,3.5,89,0.00,CLR,,0.00,WeatherDisplay:10.37,2013-01-07 00:52:00,
2013-01-06 19:57:00,34.8,31.9,29.94,SW,223,0.5,2.0,89,0.00,CLR,,0.00,WeatherDisplay:10.37,2013-01-07 00:57:00,
2013-01-06 20:02:00,34.7,31.8,29.94,SSW,196,1.5,3.5,89,0.00,CLR,,0.00,WeatherDisplay:10.37,2013-01-07 01:02:00,
2013-01-06 20:08:00,34.8,31.9,29.94,SW,214,2.9,3.5,89,0.00,CLR,,0.00,WeatherDisplay:10.37,2013-01-07 01:08:00,
2013-01-06 20:13:00,34.8,31.9,29.94,SW,221,2.7,3.5,89,0.00,CLR,,0.00,WeatherDisplay:10.37,2013-01-07 01:13:00,
2013-01-06 20:18:00,34.9,32.0,29.94,SW,217,3.5,4.6,89,0.00,CLR,,0.00,WeatherDisplay:10.37,2013-01-07 01:18:00,
2013-01-06 20:23:00,34.8,31.9,29.94,SSW,211,2.6,3.5,89,0.00,CLR,,0.00,WeatherDisplay:10.37,2013-01-07 01:23:00,
2013-01-06 20:28:00,34.8,31.9,29.94,South,187,1.7,3.5,89,0.00,CLR,,0.00,WeatherDisplay:10.37,2013-01-07 01:28:00,
2013-01-06 20:35:00,34.7,31.8,29.94,SSW,207,6.3,9.2,89,0.00,CLR,,0.00,WeatherDisplay:10.37,2013-01-07 01:35:00,
2013-01-06 20:40:00,34.7,31.8,29.94,South,184,2.2,3.5,89,0.00,CLR,,0.00,WeatherDisplay:10.37,2013-01-07 01:40:00,
2013-01-06 20:45:00,34.7,31.8,29.95,SW,234,3.2,5.8,89,0.00,CLR,,0.00,WeatherDisplay:10.37,2013-01-07 01:45:00,
2013-01-06 20:51:00,34.7,31.8,29.95,WSW,244,4.2,5.8,89,0.00,CLR,,0.00,WeatherDisplay:10.37,2013-01-07 01:51:00,
2013-01-06 20:56:00,34.7,31.8,29.95,SSW,192,5.0,8.1,89,0.00,CLR,,0.00,WeatherDisplay:10.37,2013-01-07 01:56:00,
2013-01-06 21:01:00,34.7,31.8,29.96,SSW,205,5.8,9.2,89,0.00,CLR,,0.00,WeatherDisplay:10.37,2013-01-07 02:01:00,
2013-01-06 21:06:00,34.7,31.5,29.96,SSW,192,1.8,4.6,88,0.00,CLR,,0.00,WeatherDisplay:10.37,2013-01-07 02:06:00,
2013-01-06 21:11:00,34.7,31.8,29.96,WSW,243,5.8,6.0,89,0.00,CLR,,0.00,WeatherDisplay:10.37,2013-01-07 02:11:00,
2013-01-06 21:16:00,34.7,31.8,29.96,South,182,2.0,3.5,89,0.00,CLR,,0.00,WeatherDisplay:10.37,2013-01-07 02:16:00,
2013-01-06 21:22:00,34.6,31.7,29.96,SSW,208,3.4,4.6,89,0.00,CLR,,0.00,WeatherDisplay:10.37,2013-01-07 02:22:00,
2013-01-06 21:27:00,34.7,31.8,29.97,SW,232,3.5,4.6,89,0.00,CLR,,0.00,WeatherDisplay:10.37,2013-01-07 02:27:00,
2013-01-06 21:32:00,34.7,31.8,29.97,SW,223,3.3,8.1,89,0.00,CLR,,0.00,WeatherDisplay:10.37,2013-01-07 02:32:00,
2013-01-06 21:37:00,34.6,31.7,29.97,South,187,3.5,6.9,89,0.00,CLR,,0.00,WeatherDisplay:10.37,2013-01-07 02:37:00,
2013-01-06 21:43:00,34.6,31.7,29.97,SW,222,2.0,3.5,89,0.00,CLR,,0.00,WeatherDisplay:10.37,2013-01-07 02:43:00,
2013-01-06 21:48:00,34.7,31.8,29.98,SSW,209,4.9,6.9,89,0.00,CLR,,0.00,WeatherDisplay:10.37,2013-01-07 02:48:00,
2013-01-06 21:53:00,34.6,31.7,29.97,SSW,198,0.7,3.5,89,0.00,CLR,,0.00,WeatherDisplay:10.37,2013-01-07 02:53:00,
2013-01-06 21:58:00,34.6,31.7,29.97,SSW,198,2.5,5.8,89,0.00,CLR,,0.00,WeatherDisplay:10.37,2013-01-07 02:58:00,
2013-01-06 22:04:00,34.7,31.5,29.97,WSW,246,0.5,2.3,88,0.00,CLR,,0.00,WeatherDisplay:10.37,2013-01-07 03:04:00,
2013-01-06 22:09:00,34.6,31.4,29.98,SW,221,3.8,8.1,88,0.00,CLR,,0.00,WeatherDisplay:10.37,2013-01-07 03:09:00,
2013-01-06 22:14:00,34.6,31.4,29.98,WSW,253,3.0,9.2,88,0.00,CLR,,0.00,WeatherDisplay:10.37,2013-01-07 03:14:00,
2013-01-06 22:19:00,34.6,31.4,29.98,SW,223,2.4,3.5,88,0.00,CLR,,0.00,WeatherDisplay:10.37,2013-01-07 03:19:00,
2013-01-06 22:24:00,34.7,31.5,29.98,SW,225,0.0,5.8,88,0.00,CLR,,0.00,WeatherDisplay:10.37,2013-01-07 03:24:00,